Terminal Aerodrome Forecast
Issued by NWS

Home | Current Version | Previous Version | Text Only | Print | Product List | Glossary On
Versions: 1 2 3 4 5 6 7 8 9 10 11 12 13 14 15 16 17 18 19
968
FTUS45 KRIW 221824 AAA
TAFJAC
TAF AMD
KJAC 221824Z 2218/2318 22009KT P6SM VCSH SCT025 BKN060
     FM230100 25008KT 3SM -SN SCT002 BKN025 OVC060
     FM230400 36006KT P6SM SCT015 BKN070
      AMD LTD TO CLD VIS AND WIND=

USA.gov is the U.S. government's official web portal to all federal, state and local government web resources and services.